createdAt,value
2022-09-03T00:01:38.011Z,19.03
2022-09-03T00:04:08.835Z,19.01
2022-09-03T00:06:39.971Z,18.97
2022-09-03T00:09:30.276Z,18.95
2022-09-03T00:12:10.932Z,18.98
2022-09-03T00:14:47.681Z,18.94
2022-09-03T00:17:16.199Z,18.92
2022-09-03T00:19:46.748Z,18.89
2022-09-03T00:22:19.062Z,18.86
2022-09-03T00:24:46.172Z,18.82
2022-09-03T00:27:18.614Z,18.76
2022-09-03T00:29:54.971Z,18.70
2022-09-03T00:32:33.634Z,18.70
2022-09-03T00:35:05.474Z,18.67
2022-09-03T00:37:37.114Z,18.65
2022-09-03T00:40:08.068Z,18.60
2022-09-03T00:42:37.166Z,18.58
2022-09-03T00:45:03.385Z,18.58
2022-09-03T00:47:48.499Z,18.52
2022-09-03T00:50:18.865Z,18.50
2022-09-03T00:53:00.295Z,18.50
2022-09-03T00:55:26.950Z,18.46
2022-09-03T00:58:01.935Z,18.42
2022-09-03T01:00:29.100Z,18.36
2022-09-03T01:03:01.393Z,18.34
2022-09-03T01:05:58.507Z,18.31
2022-09-03T01:08:47.417Z,18.28
2022-09-03T01:11:36.847Z,18.26
2022-09-03T01:14:12.707Z,18.22
2022-09-03T01:16:44.819Z,18.17
2022-09-03T01:19:30.221Z,18.17
2022-09-03T01:22:08.843Z,18.14
2022-09-03T01:24:53.757Z,18.14
2022-09-03T01:27:36.846Z,18.07
2022-09-03T01:30:18.369Z,18.04
2022-09-03T01:33:03.663Z,18.04
2022-09-03T01:35:50.193Z,17.98
2022-09-03T01:38:22.345Z,17.94
2022-09-03T01:40:54.709Z,17.92
2022-09-03T01:43:32.350Z,17.88
2022-09-03T01:46:16.970Z,17.82
2022-09-03T01:48:46.416Z,17.81
2022-09-03T01:51:20.879Z,17.77
2022-09-03T01:53:47.206Z,17.73
2022-09-03T01:56:34.372Z,17.71
2022-09-03T01:59:21.059Z,17.72
2022-09-03T02:01:56.862Z,17.70
2022-09-03T02:04:25.810Z,17.68
2022-09-03T02:06:52.868Z,17.68
2022-09-03T02:09:19.851Z,17.68
2022-09-03T02:11:50.679Z,17.65
2022-09-03T02:14:17.627Z,17.62
2022-09-03T02:16:44.838Z,17.60
2022-09-03T02:19:12.962Z,17.56
2022-09-03T02:21:42.519Z,17.55
2022-09-03T02:24:09.318Z,17.54
2022-09-03T02:26:36.087Z,17.52
2022-09-03T02:29:02.987Z,17.49
2022-09-03T02:31:29.588Z,17.47
2022-09-03T02:33:57.045Z,17.47
2022-09-03T02:36:29.468Z,17.46
2022-09-03T02:38:55.789Z,17.45
2022-09-03T02:41:22.730Z,17.41
2022-09-03T02:43:53.734Z,17.39
2022-09-03T02:46:27.079Z,17.36
2022-09-03T02:48:54.059Z,17.36
2022-09-03T02:51:20.473Z,17.29
2022-09-03T02:53:46.750Z,17.28
2022-09-03T02:56:13.586Z,17.24
2022-09-03T02:58:39.858Z,17.26
2022-09-03T03:01:06.245Z,17.24
2022-09-03T03:03:33.157Z,17.24
2022-09-03T03:06:01.246Z,17.19
2022-09-03T03:08:28.563Z,17.19
2022-09-03T03:10:58.597Z,17.16
2022-09-03T03:13:25.431Z,17.17
2022-09-03T03:15:51.926Z,17.16
2022-09-03T03:18:18.393Z,17.16
2022-09-03T03:20:44.870Z,17.13
2022-09-03T03:23:11.246Z,17.11
2022-09-03T03:25:38.642Z,17.08
2022-09-03T03:28:05.344Z,17.06
2022-09-03T03:30:32.531Z,17.04
2022-09-03T03:32:58.843Z,16.98
2022-09-03T03:35:25.232Z,16.99
2022-09-03T03:37:51.667Z,16.96
2022-09-03T03:40:18.070Z,16.93
2022-09-03T03:42:44.319Z,16.90
2022-09-03T03:45:10.763Z,16.86
2022-09-03T03:47:37.189Z,16.82
2022-09-03T03:50:04.390Z,16.82
2022-09-03T03:52:30.675Z,16.79
2022-09-03T03:54:57.266Z,16.73
2022-09-03T03:57:23.845Z,16.75
2022-09-03T03:59:50.694Z,16.74
2022-09-03T04:02:17.470Z,16.73
2022-09-03T04:04:43.799Z,16.69
2022-09-03T04:07:10.314Z,16.69
2022-09-03T04:09:37.328Z,16.68
2022-09-03T04:12:05.413Z,16.63
2022-09-03T04:14:31.700Z,16.60
2022-09-03T04:16:58.361Z,16.56
2022-09-03T04:19:25.139Z,16.56
2022-09-03T04:21:51.630Z,16.56
2022-09-03T04:24:17.919Z,16.56
2022-09-03T04:26:44.460Z,16.54
2022-09-03T04:29:10.827Z,16.52
2022-09-03T04:31:38.088Z,16.50
2022-09-03T04:34:09.291Z,16.49
2022-09-03T04:36:37.417Z,16.45
2022-09-03T04:39:03.723Z,16.43
2022-09-03T04:41:31.147Z,16.37
2022-09-03T04:43:58.291Z,16.38
2022-09-03T04:46:26.150Z,16.37
2022-09-03T04:48:54.303Z,16.38
2022-09-03T04:51:22.014Z,16.39
2022-09-03T04:53:49.906Z,16.38
2022-09-03T04:56:20.365Z,16.36
2022-09-03T04:58:50.975Z,16.35
2022-09-03T05:01:21.520Z,16.32
2022-09-03T05:03:48.051Z,16.31
2022-09-03T05:06:17.046Z,16.27
2022-09-03T05:08:43.975Z,16.27
2022-09-03T05:11:10.574Z,16.27
2022-09-03T05:13:36.973Z,16.27
2022-09-03T05:16:05.739Z,16.26
2022-09-03T05:18:32.960Z,16.26
2022-09-03T05:21:00.554Z,16.25
2022-09-03T05:23:27.598Z,16.25
2022-09-03T05:26:01.268Z,16.25
2022-09-03T05:28:28.772Z,16.23
2022-09-03T05:31:05.958Z,16.21
2022-09-03T05:33:36.150Z,16.20
2022-09-03T05:36:04.163Z,16.20
2022-09-03T05:38:30.879Z,16.20
2022-09-03T05:40:58.430Z,16.21
2022-09-03T05:43:25.143Z,16.18
2022-09-03T05:45:51.466Z,16.21
2022-09-03T05:48:17.789Z,16.23
2022-09-03T05:50:44.042Z,16.28
2022-09-03T05:53:10.374Z,16.30
2022-09-03T05:55:36.619Z,16.36
2022-09-03T05:58:02.914Z,16.37
2022-09-03T06:00:29.217Z,16.39
2022-09-03T06:02:55.670Z,16.41
2022-09-03T06:05:22.068Z,16.46
2022-09-03T06:07:49.548Z,16.49
2022-09-03T06:10:18.178Z,16.48
2022-09-03T06:12:47.247Z,16.52
2022-09-03T06:15:13.693Z,16.54
2022-09-03T06:17:39.969Z,16.59
2022-09-03T06:20:06.472Z,16.61
2022-09-03T06:22:32.798Z,16.65
2022-09-03T06:24:59.053Z,16.62
2022-09-03T06:27:25.309Z,16.69
2022-09-03T06:29:51.593Z,16.69
2022-09-03T06:32:17.892Z,16.70
2022-09-03T06:34:44.190Z,16.79
2022-09-03T06:37:10.480Z,16.80
2022-09-03T06:39:36.793Z,16.83
2022-09-03T06:42:03.055Z,16.83
2022-09-03T06:44:29.502Z,16.83
2022-09-03T06:46:55.832Z,16.84
2022-09-03T06:49:22.338Z,16.91
2022-09-03T06:51:48.689Z,16.90
2022-09-03T06:54:15.846Z,17.06
2022-09-03T06:56:42.155Z,17.13
2022-09-03T06:59:12.479Z,17.23
2022-09-03T07:01:44.695Z,17.29
2022-09-03T07:04:12.823Z,17.32
2022-09-03T07:06:40.437Z,17.36
2022-09-03T07:09:07.463Z,17.40
2022-09-03T07:11:35.831Z,17.47
2022-09-03T07:14:03.706Z,17.47
2022-09-03T07:16:32.889Z,17.49
2022-09-03T07:19:00.919Z,17.58
2022-09-03T07:21:28.186Z,17.70
2022-09-03T07:23:55.307Z,17.77
2022-09-03T07:26:26.083Z,17.84
2022-09-03T07:28:54.140Z,17.91
2022-09-03T07:31:25.646Z,17.95
2022-09-03T07:33:55.662Z,18.01
2022-09-03T07:36:22.566Z,18.02
2022-09-03T07:38:48.975Z,18.05
2022-09-03T07:41:17.491Z,18.15
2022-09-03T07:43:53.729Z,18.30
2022-09-03T07:46:24.359Z,18.37
2022-09-03T07:48:52.242Z,18.45
2022-09-03T07:51:19.398Z,18.46
2022-09-03T07:53:46.783Z,18.54
2022-09-03T07:56:13.546Z,18.62
2022-09-03T07:58:41.141Z,18.69
2022-09-03T08:01:11.297Z,18.76
2022-09-03T08:03:38.504Z,18.83
2022-09-03T08:06:07.607Z,19.04
2022-09-03T08:08:36.317Z,19.10
2022-09-03T08:11:12.946Z,19.20
2022-09-03T08:14:01.650Z,19.39
2022-09-03T08:16:32.136Z,19.62
2022-09-03T08:18:58.836Z,19.84
2022-09-03T08:21:26.381Z,20.11
2022-09-03T08:23:54.733Z,20.37
2022-09-03T08:26:21.509Z,20.64
2022-09-03T08:28:48.611Z,20.93
2022-09-03T08:31:16.579Z,21.16
2022-09-03T08:33:44.286Z,21.40
2022-09-03T08:36:15.513Z,21.64
2022-09-03T08:38:43.499Z,21.92
2022-09-03T08:41:16.346Z,22.07
2022-09-03T08:43:52.151Z,22.28
2022-09-03T08:46:18.964Z,22.47
2022-09-03T08:48:47.375Z,22.68
2022-09-03T08:51:16.132Z,22.86
2022-09-03T08:53:48.447Z,22.97
2022-09-03T08:56:31.432Z,23.17
2022-09-03T08:58:57.991Z,23.36
2022-09-03T09:01:42.951Z,23.52
2022-09-03T09:04:15.682Z,23.62
2022-09-03T09:06:47.911Z,23.67
2022-09-03T09:09:32.811Z,23.83
2022-09-03T09:12:23.491Z,24.01
2022-09-03T09:15:08.687Z,24.15
2022-09-03T09:17:55.837Z,24.43
2022-09-03T09:20:29.747Z,24.52
2022-09-03T09:23:01.266Z,24.70
2022-09-03T09:25:27.775Z,24.86
2022-09-03T09:27:58.611Z,24.98
2022-09-03T09:30:26.375Z,25.07
2022-09-03T09:32:52.924Z,25.24
2022-09-03T09:35:19.906Z,25.48
2022-09-03T09:37:46.954Z,25.63
2022-09-03T09:40:22.994Z,25.77
2022-09-03T09:42:49.298Z,25.98
2022-09-03T09:45:15.586Z,26.20
2022-09-03T09:47:42.495Z,26.35
2022-09-03T09:50:26.337Z,26.49
2022-09-03T09:53:14.266Z,26.69
2022-09-03T09:55:49.551Z,26.77
2022-09-03T09:58:19.605Z,26.90
2022-09-03T10:01:00.429Z,27.08
2022-09-03T10:03:29.745Z,27.26
2022-09-03T10:06:23.892Z,27.46
2022-09-03T10:08:50.275Z,27.59
2022-09-03T10:11:18.289Z,27.71
2022-09-03T10:13:48.014Z,27.80
2022-09-03T10:16:29.593Z,28.04
2022-09-03T10:19:10.949Z,28.24
2022-09-03T10:21:37.298Z,28.40
2022-09-03T10:24:15.638Z,28.33
2022-09-03T10:26:44.748Z,28.57
2022-09-03T10:29:11.948Z,28.74
2022-09-03T10:31:45.696Z,28.89
2022-09-03T10:34:11.934Z,29.09
2022-09-03T10:37:00.656Z,29.19
2022-09-03T10:39:43.320Z,29.22
2022-09-03T10:42:12.814Z,29.46
2022-09-03T10:44:57.467Z,29.54
2022-09-03T10:47:35.972Z,29.77
2022-09-03T10:50:23.178Z,29.89
2022-09-03T10:52:57.971Z,30.00
2022-09-03T10:55:24.239Z,30.21
2022-09-03T10:58:05.656Z,30.26
2022-09-03T11:00:34.488Z,30.43
2022-09-03T11:03:15.673Z,30.47
2022-09-03T11:06:00.932Z,30.57
2022-09-03T11:08:37.809Z,30.77
2022-09-03T11:11:22.702Z,30.89
2022-09-03T11:13:53.989Z,31.05
2022-09-03T11:16:25.585Z,31.16
2022-09-03T11:18:57.475Z,31.14
2022-09-03T11:21:26.125Z,31.23
2022-09-03T11:24:00.490Z,31.25
2022-09-03T11:26:27.763Z,31.43
2022-09-03T11:29:00.573Z,31.49
2022-09-03T11:31:47.062Z,31.69
2022-09-03T11:34:23.290Z,31.90
2022-09-03T11:36:50.226Z,31.93
2022-09-03T11:39:33.258Z,32.01
2022-09-03T11:42:06.986Z,32.15
2022-09-03T11:44:51.171Z,32.19
2022-09-03T11:47:25.145Z,32.17
2022-09-03T11:50:04.966Z,32.23
2022-09-03T11:52:32.505Z,31.96
2022-09-03T11:54:58.954Z,31.83
2022-09-03T11:57:30.154Z,32.12
2022-09-03T12:00:13.606Z,32.16
2022-09-03T12:02:45.261Z,32.15
2022-09-03T12:05:14.438Z,32.34
2022-09-03T12:07:51.308Z,32.26
2022-09-03T12:10:25.278Z,32.39
2022-09-03T12:12:53.799Z,32.39
2022-09-03T12:15:22.854Z,32.56
2022-09-03T12:18:13.698Z,32.62
2022-09-03T12:20:40.778Z,32.63
2022-09-03T12:23:08.091Z,32.83
2022-09-03T12:25:34.357Z,32.96
2022-09-03T12:28:03.759Z,32.89
2022-09-03T12:30:30.941Z,32.81
2022-09-03T12:33:05.411Z,32.89
2022-09-03T12:38:23.529Z,32.94
2022-09-03T12:43:38.177Z,33.10
2022-09-03T12:46:10.435Z,33.30
2022-09-03T12:48:40.534Z,33.33
2022-09-03T12:53:56.137Z,33.29
2022-09-03T12:56:22.625Z,33.16
2022-09-03T12:58:49.695Z,33.26
2022-09-03T13:01:42.386Z,33.33
2022-09-03T13:04:10.337Z,33.37
2022-09-03T13:06:46.682Z,33.43
2022-09-03T13:09:13.337Z,32.99
2022-09-03T13:11:39.714Z,33.16
2022-09-03T13:14:11.156Z,32.94
2022-09-03T13:16:40.429Z,33.06
2022-09-03T13:19:09.847Z,33.02
2022-09-03T13:21:45.283Z,33.19
2022-09-03T13:24:19.394Z,32.94
2022-09-03T13:26:56.613Z,32.92
2022-09-03T13:29:40.006Z,32.95
2022-09-03T13:32:17.175Z,33.12
2022-09-03T13:34:49.289Z,32.80
2022-09-03T13:37:34.082Z,32.62
2022-09-03T13:40:10.040Z,32.81
2022-09-03T13:42:40.554Z,32.66
2022-09-03T13:45:23.178Z,32.76
2022-09-03T13:48:26.409Z,32.88
2022-09-03T13:51:06.591Z,32.77
2022-09-03T13:53:51.501Z,33.02
2022-09-03T13:56:36.251Z,33.09
2022-09-03T13:59:09.400Z,32.96
2022-09-03T14:01:35.759Z,32.87
2022-09-03T14:04:03.463Z,33.09
2022-09-03T14:06:47.885Z,33.04
2022-09-03T14:09:31.061Z,33.20
2022-09-03T14:12:03.394Z,33.25
2022-09-03T14:14:44.773Z,33.16
2022-09-03T14:17:15.099Z,33.06
2022-09-03T14:19:46.627Z,32.68
2022-09-03T14:22:22.841Z,32.57
2022-09-03T14:25:01.244Z,32.78
2022-09-03T14:27:28.896Z,32.68
2022-09-03T14:29:59.792Z,32.86
2022-09-03T14:32:31.906Z,32.87
2022-09-03T14:35:03.102Z,32.95
2022-09-03T14:37:44.805Z,33.10
2022-09-03T14:40:17.123Z,33.15
2022-09-03T14:42:49.605Z,32.95
2022-09-03T14:45:34.832Z,32.96
2022-09-03T14:48:01.313Z,33.12
2022-09-03T14:50:43.299Z,33.01
2022-09-03T14:53:10.469Z,32.97
2022-09-03T14:55:43.762Z,32.90
2022-09-03T14:58:16.265Z,32.86
2022-09-03T15:00:50.634Z,32.90
2022-09-03T15:03:29.724Z,32.90
2022-09-03T15:06:03.571Z,32.95
2022-09-03T15:08:48.761Z,32.85
2022-09-03T15:11:20.113Z,32.85
2022-09-03T15:13:49.923Z,32.86
2022-09-03T15:16:36.025Z,32.88
2022-09-03T15:19:08.132Z,32.90
2022-09-03T15:21:54.701Z,32.88
2022-09-03T15:24:33.386Z,32.82
2022-09-03T15:27:20.640Z,32.78
2022-09-03T15:30:07.809Z,32.82
2022-09-03T15:32:46.710Z,32.75
2022-09-03T15:35:33.910Z,32.62
2022-09-03T15:38:02.487Z,32.67
2022-09-03T15:40:31.336Z,32.60
2022-09-03T15:43:05.926Z,32.54
2022-09-03T15:45:35.540Z,32.47
2022-09-03T15:48:17.015Z,32.48
2022-09-03T15:51:10.028Z,32.56
2022-09-03T15:53:39.697Z,32.59
2022-09-03T15:56:18.464Z,32.55
2022-09-03T15:59:03.695Z,32.48
2022-09-03T16:01:50.999Z,32.34
2022-09-03T16:04:22.942Z,32.27
2022-09-03T16:06:49.421Z,32.21
2022-09-03T16:09:18.875Z,32.16
2022-09-03T16:11:51.790Z,32.19
2022-09-03T16:14:23.466Z,32.17
2022-09-03T16:16:55.096Z,32.12
2022-09-03T16:19:28.080Z,32.05
2022-09-03T16:22:07.299Z,31.97
2022-09-03T16:24:48.987Z,31.85
2022-09-03T16:27:15.597Z,31.83
2022-09-03T16:29:42.279Z,31.77
2022-09-03T16:32:29.766Z,31.70
2022-09-03T16:34:56.026Z,31.59
2022-09-03T16:37:30.535Z,31.55
2022-09-03T16:40:11.312Z,31.45
2022-09-03T16:42:47.171Z,31.45
2022-09-03T16:45:33.666Z,31.44
2022-09-03T16:48:09.861Z,31.33
2022-09-03T16:50:46.588Z,31.15
2022-09-03T16:53:28.765Z,31.12
2022-09-03T16:56:14.162Z,31.02
2022-09-03T16:58:46.675Z,30.81
2022-09-03T17:01:22.005Z,30.78
2022-09-03T17:03:48.692Z,30.62
2022-09-03T17:06:30.865Z,30.48
2022-09-03T17:09:23.262Z,30.40
2022-09-03T17:12:01.901Z,30.29
2022-09-03T17:14:37.343Z,30.19
2022-09-03T17:17:12.111Z,30.09
2022-09-03T17:19:44.307Z,30.01
2022-09-03T17:22:25.860Z,29.88
2022-09-03T17:25:11.794Z,29.75
2022-09-03T17:27:47.439Z,29.64
2022-09-03T17:30:23.230Z,29.55
2022-09-03T17:32:57.258Z,29.45
2022-09-03T17:35:44.490Z,29.26
2022-09-03T17:38:10.753Z,29.19
2022-09-03T17:40:44.482Z,29.10
2022-09-03T17:43:13.782Z,29.00
2022-09-03T17:45:48.919Z,28.92
2022-09-03T17:48:40.132Z,28.82
2022-09-03T17:51:16.563Z,28.66
2022-09-03T17:53:49.935Z,28.57
2022-09-03T17:56:25.371Z,28.51
2022-09-03T17:59:02.510Z,28.38
2022-09-03T18:01:33.201Z,28.34
2022-09-03T18:04:05.171Z,28.29
2022-09-03T18:06:40.814Z,28.20
2022-09-03T18:09:28.460Z,28.12
2022-09-03T18:12:07.001Z,28.00
2022-09-03T18:14:36.626Z,27.93
2022-09-03T18:17:09.074Z,27.85
2022-09-03T18:20:12.956Z,27.70
2022-09-03T18:23:18.139Z,27.57
2022-09-03T18:26:05.275Z,27.37
2022-09-03T18:29:10.215Z,27.21
2022-09-03T18:31:55.030Z,27.10
2022-09-03T18:34:49.062Z,26.98
2022-09-03T18:37:35.936Z,26.79
2022-09-03T18:40:20.810Z,26.63
2022-09-03T18:43:20.939Z,26.40
2022-09-03T18:49:29.905Z,25.96
2022-09-03T18:52:19.609Z,25.79
2022-09-03T18:55:25.991Z,25.65
2022-09-03T18:58:36.383Z,25.49
2022-09-03T19:01:32.580Z,25.37
2022-09-03T19:04:47.174Z,25.25
2022-09-03T19:07:50.936Z,25.08
2022-09-03T19:10:40.842Z,24.94
2022-09-03T19:13:44.903Z,24.81
2022-09-03T19:16:56.078Z,24.66
2022-09-03T19:19:43.759Z,24.53
2022-09-03T19:22:30.162Z,24.39
2022-09-03T19:25:18.633Z,24.30
2022-09-03T19:28:11.498Z,24.16
2022-09-03T19:31:06.508Z,24.04
2022-09-03T19:33:51.732Z,23.91
2022-09-03T19:36:55.384Z,23.82
2022-09-03T19:39:52.718Z,23.78
2022-09-03T19:42:44.312Z,23.70
2022-09-03T19:45:32.641Z,23.62
2022-09-03T19:48:29.852Z,23.55
2022-09-03T19:51:23.367Z,23.47
2022-09-03T19:54:09.148Z,23.36
2022-09-03T19:56:55.492Z,23.26
2022-09-03T19:59:43.271Z,23.18
2022-09-03T20:02:28.062Z,23.07
2022-09-03T20:05:26.126Z,22.98
2022-09-03T20:08:13.036Z,22.91
2022-09-03T20:10:41.657Z,22.83
2022-09-03T20:13:09.215Z,22.77
2022-09-03T20:15:42.727Z,22.71
2022-09-03T20:18:14.926Z,22.64
2022-09-03T20:20:46.163Z,22.57
2022-09-03T20:23:15.213Z,22.48
2022-09-03T20:26:13.846Z,22.41
2022-09-03T20:28:55.339Z,22.37
2022-09-03T20:31:24.273Z,22.33
2022-09-03T20:33:50.581Z,22.31
2022-09-03T20:36:26.096Z,22.28
2022-09-03T20:39:11.165Z,22.26
2022-09-03T20:41:53.387Z,22.20
2022-09-03T20:44:31.966Z,22.14
2022-09-03T20:47:04.828Z,22.05
2022-09-03T20:49:40.379Z,21.99
2022-09-03T20:52:11.228Z,21.90
2022-09-03T20:54:42.546Z,21.84
2022-09-03T20:57:08.986Z,21.84
2022-09-03T20:59:44.738Z,21.78
2022-09-03T21:02:11.020Z,21.75
2022-09-03T21:04:56.356Z,21.70
2022-09-03T21:07:29.136Z,21.68
2022-09-03T21:10:16.002Z,21.69
2022-09-03T21:12:42.253Z,21.69
2022-09-03T21:15:16.358Z,21.75
2022-09-03T21:17:42.627Z,21.67
2022-09-03T21:20:29.181Z,21.61
2022-09-03T21:23:04.860Z,21.57
2022-09-03T21:25:36.921Z,21.46
2022-09-03T21:28:06.665Z,21.48
2022-09-03T21:30:37.751Z,21.45
2022-09-03T21:33:20.751Z,21.42
2022-09-03T21:35:50.261Z,21.35
2022-09-03T21:38:21.184Z,21.32
2022-09-03T21:40:53.389Z,21.26
2022-09-03T21:43:33.094Z,21.27
2022-09-03T21:46:08.700Z,21.28
2022-09-03T21:48:50.166Z,21.30
2022-09-03T21:51:18.934Z,21.25
2022-09-03T21:53:52.702Z,21.19
2022-09-03T21:56:37.279Z,21.12
2022-09-03T21:59:08.328Z,21.10
2022-09-03T22:01:48.185Z,21.05
2022-09-03T22:04:14.719Z,21.03
2022-09-03T22:06:50.848Z,20.99
2022-09-03T22:09:31.842Z,20.96
2022-09-03T22:12:02.923Z,20.95
2022-09-03T22:14:32.740Z,20.87
2022-09-03T22:17:16.784Z,20.83
2022-09-03T22:19:43.038Z,20.73
2022-09-03T22:22:22.519Z,20.69
2022-09-03T22:24:58.659Z,20.71
2022-09-03T22:27:37.027Z,20.66
2022-09-03T22:30:11.337Z,20.62
2022-09-03T22:32:37.641Z,20.52
2022-09-03T22:35:36.321Z,20.47
2022-09-03T22:38:09.539Z,20.41
2022-09-03T22:40:50.741Z,20.34
2022-09-03T22:43:26.925Z,20.33
2022-09-03T22:46:05.529Z,20.32
2022-09-03T22:48:48.706Z,20.30
2022-09-03T22:51:21.050Z,20.26
2022-09-03T22:53:59.318Z,20.25
2022-09-03T22:56:25.942Z,20.22
2022-09-03T22:59:10.821Z,20.18
2022-09-03T23:01:43.532Z,20.17
2022-09-03T23:04:25.486Z,20.14
2022-09-03T23:06:57.343Z,20.09
2022-09-03T23:09:27.499Z,20.05
2022-09-03T23:11:59.533Z,19.99
2022-09-03T23:14:34.246Z,19.93
2022-09-03T23:17:06.234Z,19.88
2022-09-03T23:19:59.093Z,19.86
2022-09-03T23:22:29.672Z,19.81
2022-09-03T23:25:10.546Z,19.79
2022-09-03T23:27:58.477Z,19.74
2022-09-03T23:30:24.763Z,19.73
2022-09-03T23:32:55.728Z,19.70
2022-09-03T23:35:26.411Z,19.67
2022-09-03T23:38:11.337Z,19.68
2022-09-03T23:40:51.690Z,19.65
2022-09-03T23:43:24.112Z,19.62
2022-09-03T23:46:00.523Z,19.55
2022-09-03T23:48:45.695Z,19.54
2022-09-03T23:51:30.919Z,19.50
2022-09-03T23:54:05.671Z,19.48
2022-09-03T23:56:34.780Z,19.49
2022-09-03T23:59:01.010Z,19.51
